首页
METAR-TAF:

METAR-TAF

机场 :

莫比尔, 阿拉巴马州, 美国

纬度: 30-41-18N, 经度: 088-14-44W, 海拔: 66米

当前天气观测

该预报发布于58分钟前的04:56 UTC
静风
温度 24°C
湿度 94%
气压 1019 hPa
能見度: 16.1公里
天空无云

METAR: KMOB 270456Z AUTO 00000KT 10SM CLR 24/23 A3010 RMK AO2 SLP189 T02440228 $

时间: 00:54 (05:54 UTC)

预报

该预报发布于34分钟前的05:20 UTC
预报有效从27日的 06点(UTC)到 28日的 06点(UTC)
风速节,风向
能見度: 10公里
天空无云
从 27日的 1500点(UTC)
风速8节,风向
能見度: 10公里
少量云层高于5000英尺
散云层高于25000英尺
从 28日的 0100点(UTC)
风速4节,风向
能見度: 10公里
天空无云

TAF: KMOB 270520Z 2706/2806 00000KT P6SM SKC FM271500 19008KT P6SM FEW050 SCT250 FM280100 19004KT P6SM SKC

超过4000个机场的气象观测和天气预报(METAR&TAF报告)。

可查询的气象台以黄色和红色小点在地图上表示。

将鼠标移到小点上方,可查看气象台名称。

然后点击查看天气观测和预报。

如需切换地图:点击带黑十字的绿色按钮放大地图;点击带横线的绿色按钮缩小地图;或者点击绿色箭头查看邻近地区的地图。


METAR-TAF: